sensor_id;sensor_type;location;lat;lon;timestamp;temperature;humidity
35593;DHT22;64447;52.140;5.602;2023-06-22T00:00:36;22.30;94.20
35593;DHT22;64447;52.140;5.602;2023-06-22T00:03:01;22.20;94.40
35593;DHT22;64447;52.140;5.602;2023-06-22T00:05:27;22.20;94.40
35593;DHT22;64447;52.140;5.602;2023-06-22T00:07:52;22.20;94.40
35593;DHT22;64447;52.140;5.602;2023-06-22T00:10:18;22.20;94.40
35593;DHT22;64447;52.140;5.602;2023-06-22T00:12:43;22.20;94.50
35593;DHT22;64447;52.140;5.602;2023-06-22T00:15:09;22.20;94.60
35593;DHT22;64447;52.140;5.602;2023-06-22T00:17:34;22.10;94.50
35593;DHT22;64447;52.140;5.602;2023-06-22T00:23:03;22.10;94.90
35593;DHT22;64447;52.140;5.602;2023-06-22T00:25:36;21.90;95.00
35593;DHT22;64447;52.140;5.602;2023-06-22T00:28:03;21.90;95.20
35593;DHT22;64447;52.140;5.602;2023-06-22T00:30:29;21.80;95.20
35593;DHT22;64447;52.140;5.602;2023-06-22T00:32:55;21.80;95.20
35593;DHT22;64447;52.140;5.602;2023-06-22T00:38:23;21.70;95.50
35593;DHT22;64447;52.140;5.602;2023-06-22T00:40:49;21.70;95.60
35593;DHT22;64447;52.140;5.602;2023-06-22T00:43:14;21.60;95.70
35593;DHT22;64447;52.140;5.602;2023-06-22T00:45:40;21.60;95.80
35593;DHT22;64447;52.140;5.602;2023-06-22T00:48:06;21.60;95.70
35593;DHT22;64447;52.140;5.602;2023-06-22T00:50:33;21.60;95.70
35593;DHT22;64447;52.140;5.602;2023-06-22T00:52:59;21.60;95.80
35593;DHT22;64447;52.140;5.602;2023-06-22T00:55:26;21.60;95.70
35593;DHT22;64447;52.140;5.602;2023-06-22T00:57:52;21.60;95.70
35593;DHT22;64447;52.140;5.602;2023-06-22T01:00:21;21.50;95.80
35593;DHT22;64447;52.140;5.602;2023-06-22T01:02:47;21.50;96.00
35593;DHT22;64447;52.140;5.602;2023-06-22T01:13:23;21.30;95.90
35593;DHT22;64447;52.140;5.602;2023-06-22T01:15:53;21.30;96.00
35593;DHT22;64447;52.140;5.602;2023-06-22T01:18:21;21.30;96.20
35593;DHT22;64447;52.140;5.602;2023-06-22T01:20:52;21.30;96.30
35593;DHT22;64447;52.140;5.602;2023-06-22T01:28:53;21.10;96.40
35593;DHT22;64447;52.140;5.602;2023-06-22T01:31:23;21.10;96.60
35593;DHT22;64447;52.140;5.602;2023-06-22T01:33:50;21.10;96.70
35593;DHT22;64447;52.140;5.602;2023-06-22T01:36:16;21.00;96.60
35593;DHT22;64447;52.140;5.602;2023-06-22T01:38:42;21.00;96.50
35593;DHT22;64447;52.140;5.602;2023-06-22T01:41:07;21.00;96.80
35593;DHT22;64447;52.140;5.602;2023-06-22T01:43:33;21.00;96.80
35593;DHT22;64447;52.140;5.602;2023-06-22T01:46:00;20.90;96.80
35593;DHT22;64447;52.140;5.602;2023-06-22T01:48:26;20.90;96.80
35593;DHT22;64447;52.140;5.602;2023-06-22T01:50:52;20.90;96.90
35593;DHT22;64447;52.140;5.602;2023-06-22T01:53:22;20.80;96.80
35593;DHT22;64447;52.140;5.602;2023-06-22T01:55:47;20.80;97.10
35593;DHT22;64447;52.140;5.602;2023-06-22T01:58:13;20.70;97.20
35593;DHT22;64447;52.140;5.602;2023-06-22T02:00:39;20.70;97.20
35593;DHT22;64447;52.140;5.602;2023-06-22T02:03:08;20.70;97.20
35593;DHT22;64447;52.140;5.602;2023-06-22T02:08:43;20.60;97.20
35593;DHT22;64447;52.140;5.602;2023-06-22T02:11:11;20.60;97.40
35593;DHT22;64447;52.140;5.602;2023-06-22T02:13:39;20.40;97.50
35593;DHT22;64447;52.140;5.602;2023-06-22T02:16:11;20.30;97.80
35593;DHT22;64447;52.140;5.602;2023-06-22T02:18:36;20.20;97.70
35593;DHT22;64447;52.140;5.602;2023-06-22T02:21:02;20.20;98.00
35593;DHT22;64447;52.140;5.602;2023-06-22T02:23:28;20.30;98.10
35593;DHT22;64447;52.140;5.602;2023-06-22T02:25:53;20.10;98.30
35593;DHT22;64447;52.140;5.602;2023-06-22T02:28:19;20.10;98.20
35593;DHT22;64447;52.140;5.602;2023-06-22T02:30:44;20.20;97.90
35593;DHT22;64447;52.140;5.602;2023-06-22T02:33:10;20.20;98.10
35593;DHT22;64447;52.140;5.602;2023-06-22T02:38:41;20.10;98.10
35593;DHT22;64447;52.140;5.602;2023-06-22T02:41:14;20.10;98.20
35593;DHT22;64447;52.140;5.602;2023-06-22T02:43:46;20.10;98.20
35593;DHT22;64447;52.140;5.602;2023-06-22T02:46:12;20.10;98.10
35593;DHT22;64447;52.140;5.602;2023-06-22T02:48:39;20.10;98.10
35593;DHT22;64447;52.140;5.602;2023-06-22T02:51:04;20.10;98.10
35593;DHT22;64447;52.140;5.602;2023-06-22T02:53:30;20.10;98.00
35593;DHT22;64447;52.140;5.602;2023-06-22T02:55:56;20.10;98.10
35593;DHT22;64447;52.140;5.602;2023-06-22T02:58:21;20.00;98.10
35593;DHT22;64447;52.140;5.602;2023-06-22T03:00:47;20.00;98.20
35593;DHT22;64447;52.140;5.602;2023-06-22T03:03:12;19.90;98.40
35593;DHT22;64447;52.140;5.602;2023-06-22T03:08:41;19.80;98.40
35593;DHT22;64447;52.140;5.602;2023-06-22T03:11:09;19.70;98.50
35593;DHT22;64447;52.140;5.602;2023-06-22T03:13:35;19.80;98.70
35593;DHT22;64447;52.140;5.602;2023-06-22T03:16:00;19.70;98.70
35593;DHT22;64447;52.140;5.602;2023-06-22T03:18:26;19.70;98.80
35593;DHT22;64447;52.140;5.602;2023-06-22T03:20:51;19.70;98.70
35593;DHT22;64447;52.140;5.602;2023-06-22T03:23:17;19.70;98.70
35593;DHT22;64447;52.140;5.602;2023-06-22T03:25:42;19.70;98.70
35593;DHT22;64447;52.140;5.602;2023-06-22T03:28:10;19.70;98.80
35593;DHT22;64447;52.140;5.602;2023-06-22T03:30:35;19.80;98.80
35593;DHT22;64447;52.140;5.602;2023-06-22T03:33:01;19.70;98.70
35593;DHT22;64447;52.140;5.602;2023-06-22T03:38:29;19.60;98.90
35593;DHT22;64447;52.140;5.602;2023-06-22T03:40:55;19.40;99.10
35593;DHT22;64447;52.140;5.602;2023-06-22T03:43:21;19.20;99.80
35593;DHT22;64447;52.140;5.602;2023-06-22T03:45:46;19.30;99.60
35593;DHT22;64447;52.140;5.602;2023-06-22T03:48:12;19.30;99.60
35593;DHT22;64447;52.140;5.602;2023-06-22T03:53:40;19.40;99.60
35593;DHT22;64447;52.140;5.602;2023-06-22T03:56:06;19.40;99.50
35593;DHT22;64447;52.140;5.602;2023-06-22T03:58:42;19.50;99.50
35593;DHT22;64447;52.140;5.602;2023-06-22T04:01:09;19.50;99.40
35593;DHT22;64447;52.140;5.602;2023-06-22T04:03:37;19.50;99.50
35593;DHT22;64447;52.140;5.602;2023-06-22T04:06:02;19.60;99.30
35593;DHT22;64447;52.140;5.602;2023-06-22T04:08:28;19.70;99.20
35593;DHT22;64447;52.140;5.602;2023-06-22T04:10:53;19.80;99.10
35593;DHT22;64447;52.140;5.602;2023-06-22T04:13:19;19.90;99.10
35593;DHT22;64447;52.140;5.602;2023-06-22T04:15:44;20.00;99.00
35593;DHT22;64447;52.140;5.602;2023-06-22T04:18:10;20.00;98.90
35593;DHT22;64447;52.140;5.602;2023-06-22T04:20:35;20.10;98.90
35593;DHT22;64447;52.140;5.602;2023-06-22T04:23:01;20.10;98.80
35593;DHT22;64447;52.140;5.602;2023-06-22T04:25:27;20.20;98.80
35593;DHT22;64447;52.140;5.602;2023-06-22T04:27:52;20.20;98.80
35593;DHT22;64447;52.140;5.602;2023-06-22T04:30:18;20.30;98.80
35593;DHT22;64447;52.140;5.602;2023-06-22T04:32:44;20.30;98.90
35593;DHT22;64447;52.140;5.602;2023-06-22T04:35:10;20.30;99.00
35593;DHT22;64447;52.140;5.602;2023-06-22T04:37:35;20.30;99.20
35593;DHT22;64447;52.140;5.602;2023-06-22T04:40:01;20.30;99.40
35593;DHT22;64447;52.140;5.602;2023-06-22T04:42:26;20.30;99.70
35593;DHT22;64447;52.140;5.602;2023-06-22T04:44:52;20.30;99.70
35593;DHT22;64447;52.140;5.602;2023-06-22T04:47:18;20.30;99.70
35593;DHT22;64447;52.140;5.602;2023-06-22T04:49:43;20.40;99.80
35593;DHT22;64447;52.140;5.602;2023-06-22T04:52:10;20.30;99.90
35593;DHT22;64447;52.140;5.602;2023-06-22T04:54:36;20.40;99.90
35593;DHT22;64447;52.140;5.602;2023-06-22T04:57:02;20.40;99.90
35593;DHT22;64447;52.140;5.602;2023-06-22T04:59:29;20.50;99.90
35593;DHT22;64447;52.140;5.602;2023-06-22T05:01:58;20.60;99.90
35593;DHT22;64447;52.140;5.602;2023-06-22T05:04:24;20.60;99.90
35593;DHT22;64447;52.140;5.602;2023-06-22T05:06:50;20.60;99.90
35593;DHT22;64447;52.140;5.602;2023-06-22T05:09:16;20.60;99.90
35593;DHT22;64447;52.140;5.602;2023-06-22T05:11:42;20.50;99.90
35593;DHT22;64447;52.140;5.602;2023-06-22T05:14:08;20.50;99.90
35593;DHT22;64447;52.140;5.602;2023-06-22T05:16:34;20.40;99.90
35593;DHT22;64447;52.140;5.602;2023-06-22T05:18:59;20.50;99.90
35593;DHT22;64447;52.140;5.602;2023-06-22T05:21:26;20.60;99.90
35593;DHT22;64447;52.140;5.602;2023-06-22T05:23:52;20.70;99.90
35593;DHT22;64447;52.140;5.602;2023-06-22T05:26:18;20.70;99.90
35593;DHT22;64447;52.140;5.602;2023-06-22T05:28:44;20.70;99.90
35593;DHT22;64447;52.140;5.602;2023-06-22T05:31:13;20.80;99.90
35593;DHT22;64447;52.140;5.602;2023-06-22T05:33:39;20.90;99.90
35593;DHT22;64447;52.140;5.602;2023-06-22T05:36:05;21.00;99.90
35593;DHT22;64447;52.140;5.602;2023-06-22T05:38:30;21.00;99.90
35593;DHT22;64447;52.140;5.602;2023-06-22T05:40:56;21.10;99.90
35593;DHT22;64447;52.140;5.602;2023-06-22T05:43:21;21.10;99.90
35593;DHT22;64447;52.140;5.602;2023-06-22T05:45:47;21.20;99.90
35593;DHT22;64447;52.140;5.602;2023-06-22T05:48:12;21.30;99.90
35593;DHT22;64447;52.140;5.602;2023-06-22T05:50:38;21.40;99.90
35593;DHT22;64447;52.140;5.602;2023-06-22T05:53:04;21.40;99.90
35593;DHT22;64447;52.140;5.602;2023-06-22T05:55:29;21.40;99.90
35593;DHT22;64447;52.140;5.602;2023-06-22T05:57:54;21.40;99.90
35593;DHT22;64447;52.140;5.602;2023-06-22T06:00:20;21.50;99.90
35593;DHT22;64447;52.140;5.602;2023-06-22T06:02:47;21.70;99.90
35593;DHT22;64447;52.140;5.602;2023-06-22T06:05:14;21.70;99.90
35593;DHT22;64447;52.140;5.602;2023-06-22T06:07:40;21.60;99.90
35593;DHT22;64447;52.140;5.602;2023-06-22T06:10:06;21.70;99.90
35593;DHT22;64447;52.140;5.602;2023-06-22T06:12:32;21.90;99.90
35593;DHT22;64447;52.140;5.602;2023-06-22T06:14:57;21.90;99.90
35593;DHT22;64447;52.140;5.602;2023-06-22T06:17:23;21.90;99.90
35593;DHT22;64447;52.140;5.602;2023-06-22T06:19:48;21.80;99.90
35593;DHT22;64447;52.140;5.602;2023-06-22T06:22:14;21.90;99.90
35593;DHT22;64447;52.140;5.602;2023-06-22T06:24:39;22.00;99.90
35593;DHT22;64447;52.140;5.602;2023-06-22T06:27:05;22.10;99.90
35593;DHT22;64447;52.140;5.602;2023-06-22T06:29:31;22.10;99.60
35593;DHT22;64447;52.140;5.602;2023-06-22T06:31:56;22.00;99.90
35593;DHT22;64447;52.140;5.602;2023-06-22T06:34:22;22.10;99.80
35593;DHT22;64447;52.140;5.602;2023-06-22T06:36:47;21.80;99.90
35593;DHT22;64447;52.140;5.602;2023-06-22T06:39:13;21.70;99.90
35593;DHT22;64447;52.140;5.602;2023-06-22T06:41:38;21.70;99.90
35593;DHT22;64447;52.140;5.602;2023-06-22T06:44:04;21.50;99.90
35593;DHT22;64447;52.140;5.602;2023-06-22T06:46:29;21.30;99.90
35593;DHT22;64447;52.140;5.602;2023-06-22T06:48:55;21.20;99.90
35593;DHT22;64447;52.140;5.602;2023-06-22T06:51:20;21.20;99.90
35593;DHT22;64447;52.140;5.602;2023-06-22T06:53:46;21.40;99.90
35593;DHT22;64447;52.140;5.602;2023-06-22T06:56:11;21.30;99.90
35593;DHT22;64447;52.140;5.602;2023-06-22T06:58:40;21.40;99.90
35593;DHT22;64447;52.140;5.602;2023-06-22T07:01:05;21.50;99.90
35593;DHT22;64447;52.140;5.602;2023-06-22T07:03:31;21.50;99.90
35593;DHT22;64447;52.140;5.602;2023-06-22T07:05:58;21.50;99.90
35593;DHT22;64447;52.140;5.602;2023-06-22T07:08:24;21.50;99.90
35593;DHT22;64447;52.140;5.602;2023-06-22T07:10:49;21.60;99.90
35593;DHT22;64447;52.140;5.602;2023-06-22T07:13:15;21.80;99.90
35593;DHT22;64447;52.140;5.602;2023-06-22T07:15:40;22.10;99.90
35593;DHT22;64447;52.140;5.602;2023-06-22T07:18:06;22.10;99.90
35593;DHT22;64447;52.140;5.602;2023-06-22T07:20:31;22.10;99.30
35593;DHT22;64447;52.140;5.602;2023-06-22T07:22:57;22.30;99.50
35593;DHT22;64447;52.140;5.602;2023-06-22T07:25:23;22.50;99.10
35593;DHT22;64447;52.140;5.602;2023-06-22T07:28:02;22.50;99.40
35593;DHT22;64447;52.140;5.602;2023-06-22T07:30:28;22.90;99.30
35593;DHT22;64447;52.140;5.602;2023-06-22T07:32:54;22.90;98.50
35593;DHT22;64447;52.140;5.602;2023-06-22T07:35:19;22.80;98.00
35593;DHT22;64447;52.140;5.602;2023-06-22T07:37:45;22.90;98.60
35593;DHT22;64447;52.140;5.602;2023-06-22T07:40:10;23.10;98.60
35593;DHT22;64447;52.140;5.602;2023-06-22T07:42:36;23.30;97.60
35593;DHT22;64447;52.140;5.602;2023-06-22T07:45:02;23.20;97.40
35593;DHT22;64447;52.140;5.602;2023-06-22T07:47:28;23.10;97.50
35593;DHT22;64447;52.140;5.602;2023-06-22T07:49:54;23.00;98.00
35593;DHT22;64447;52.140;5.602;2023-06-22T07:52:21;23.00;97.90
35593;DHT22;64447;52.140;5.602;2023-06-22T07:54:46;23.10;98.00
35593;DHT22;64447;52.140;5.602;2023-06-22T07:57:12;23.20;97.40
35593;DHT22;64447;52.140;5.602;2023-06-22T07:59:37;23.30;97.60
35593;DHT22;64447;52.140;5.602;2023-06-22T08:02:04;23.40;97.10
35593;DHT22;64447;52.140;5.602;2023-06-22T08:04:29;23.40;96.90
35593;DHT22;64447;52.140;5.602;2023-06-22T08:06:57;23.40;96.90
35593;DHT22;64447;52.140;5.602;2023-06-22T08:09:22;23.60;96.90
35593;DHT22;64447;52.140;5.602;2023-06-22T08:11:48;23.70;96.60
35593;DHT22;64447;52.140;5.602;2023-06-22T08:14:14;23.80;96.10
35593;DHT22;64447;52.140;5.602;2023-06-22T08:16:40;23.60;96.20
35593;DHT22;64447;52.140;5.602;2023-06-22T08:19:06;23.70;96.40
35593;DHT22;64447;52.140;5.602;2023-06-22T08:21:31;23.80;95.80
35593;DHT22;64447;52.140;5.602;2023-06-22T08:23:57;24.00;96.00
35593;DHT22;64447;52.140;5.602;2023-06-22T08:26:22;23.90;95.40
35593;DHT22;64447;52.140;5.602;2023-06-22T08:28:48;24.00;95.30
35593;DHT22;64447;52.140;5.602;2023-06-22T08:31:14;24.00;95.50
35593;DHT22;64447;52.140;5.602;2023-06-22T08:33:40;24.00;95.50
35593;DHT22;64447;52.140;5.602;2023-06-22T08:36:06;24.10;95.10
35593;DHT22;64447;52.140;5.602;2023-06-22T08:38:31;24.30;95.80
35593;DHT22;64447;52.140;5.602;2023-06-22T08:40:57;24.50;94.40
35593;DHT22;64447;52.140;5.602;2023-06-22T08:43:22;24.50;94.50
35593;DHT22;64447;52.140;5.602;2023-06-22T08:45:48;24.60;94.20
35593;DHT22;64447;52.140;5.602;2023-06-22T08:48:14;24.60;93.00
35593;DHT22;64447;52.140;5.602;2023-06-22T08:50:39;24.60;93.90
35593;DHT22;64447;52.140;5.602;2023-06-22T08:53:06;24.70;94.50
35593;DHT22;64447;52.140;5.602;2023-06-22T08:55:31;24.70;93.60
35593;DHT22;64447;52.140;5.602;2023-06-22T08:57:57;24.80;93.30
35593;DHT22;64447;52.140;5.602;2023-06-22T09:02:48;24.50;93.10
35593;DHT22;64447;52.140;5.602;2023-06-22T09:05:13;24.60;93.50
35593;DHT22;64447;52.140;5.602;2023-06-22T09:07:39;24.70;92.20
35593;DHT22;64447;52.140;5.602;2023-06-22T09:10:05;24.90;92.00
35593;DHT22;64447;52.140;5.602;2023-06-22T09:12:31;24.80;90.80
35593;DHT22;64447;52.140;5.602;2023-06-22T09:14:58;24.80;90.40
35593;DHT22;64447;52.140;5.602;2023-06-22T09:17:25;24.80;89.50
35593;DHT22;64447;52.140;5.602;2023-06-22T09:19:51;24.70;89.00
35593;DHT22;64447;52.140;5.602;2023-06-22T09:22:16;24.70;91.10
35593;DHT22;64447;52.140;5.602;2023-06-22T09:24:42;24.80;91.60
35593;DHT22;64447;52.140;5.602;2023-06-22T09:27:07;24.90;91.90
35593;DHT22;64447;52.140;5.602;2023-06-22T09:29:33;25.10;90.90
35593;DHT22;64447;52.140;5.602;2023-06-22T09:31:59;25.20;90.60
35593;DHT22;64447;52.140;5.602;2023-06-22T09:34:25;25.20;90.20
35593;DHT22;64447;52.140;5.602;2023-06-22T09:36:51;25.20;89.80
35593;DHT22;64447;52.140;5.602;2023-06-22T09:39:20;25.30;90.60
35593;DHT22;64447;52.140;5.602;2023-06-22T09:41:45;25.50;89.80
35593;DHT22;64447;52.140;5.602;2023-06-22T09:44:10;25.60;90.00
35593;DHT22;64447;52.140;5.602;2023-06-22T09:46:36;25.70;87.70
35593;DHT22;64447;52.140;5.602;2023-06-22T09:49:01;25.60;87.30
35593;DHT22;64447;52.140;5.602;2023-06-22T09:51:27;25.50;87.50
35593;DHT22;64447;52.140;5.602;2023-06-22T09:53:53;25.50;89.10
35593;DHT22;64447;52.140;5.602;2023-06-22T09:56:21;25.40;89.10
35593;DHT22;64447;52.140;5.602;2023-06-22T09:58:47;25.40;90.10
35593;DHT22;64447;52.140;5.602;2023-06-22T10:01:15;25.60;89.70
35593;DHT22;64447;52.140;5.602;2023-06-22T10:03:41;25.90;89.30
35593;DHT22;64447;52.140;5.602;2023-06-22T10:06:09;26.20;89.40
35593;DHT22;64447;52.140;5.602;2023-06-22T10:08:35;26.00;88.50
35593;DHT22;64447;52.140;5.602;2023-06-22T10:11:00;25.80;88.70
35593;DHT22;64447;52.140;5.602;2023-06-22T10:13:26;25.90;90.20
35593;DHT22;64447;52.140;5.602;2023-06-22T10:15:52;25.90;89.40
35593;DHT22;64447;52.140;5.602;2023-06-22T10:18:18;25.90;87.70
35593;DHT22;64447;52.140;5.602;2023-06-22T10:20:48;25.90;87.80
35593;DHT22;64447;52.140;5.602;2023-06-22T10:23:13;25.80;89.20
35593;DHT22;64447;52.140;5.602;2023-06-22T10:25:39;25.50;89.50
35593;DHT22;64447;52.140;5.602;2023-06-22T10:28:04;25.60;89.40
35593;DHT22;64447;52.140;5.602;2023-06-22T10:30:30;25.50;88.50
35593;DHT22;64447;52.140;5.602;2023-06-22T10:32:55;25.40;88.40
35593;DHT22;64447;52.140;5.602;2023-06-22T10:35:21;25.40;89.20
35593;DHT22;64447;52.140;5.602;2023-06-22T10:37:46;25.20;89.30
35593;DHT22;64447;52.140;5.602;2023-06-22T10:40:12;25.30;89.40
35593;DHT22;64447;52.140;5.602;2023-06-22T10:42:38;25.40;88.50
35593;DHT22;64447;52.140;5.602;2023-06-22T10:45:04;25.50;89.50
35593;DHT22;64447;52.140;5.602;2023-06-22T10:47:30;25.60;88.50
35593;DHT22;64447;52.140;5.602;2023-06-22T10:49:55;25.40;90.10
35593;DHT22;64447;52.140;5.602;2023-06-22T10:52:21;25.60;89.00
35593;DHT22;64447;52.140;5.602;2023-06-22T10:54:46;25.60;88.40
35593;DHT22;64447;52.140;5.602;2023-06-22T10:57:12;25.60;88.00
35593;DHT22;64447;52.140;5.602;2023-06-22T10:59:37;25.60;89.50
35593;DHT22;64447;52.140;5.602;2023-06-22T11:02:03;25.80;88.90
35593;DHT22;64447;52.140;5.602;2023-06-22T11:04:28;25.80;88.10
35593;DHT22;64447;52.140;5.602;2023-06-22T11:06:54;25.70;87.60
35593;DHT22;64447;52.140;5.602;2023-06-22T11:09:21;25.80;88.30
35593;DHT22;64447;52.140;5.602;2023-06-22T11:11:47;26.00;86.70
35593;DHT22;64447;52.140;5.602;2023-06-22T11:14:12;26.20;85.00
35593;DHT22;64447;52.140;5.602;2023-06-22T11:16:38;26.30;86.50
35593;DHT22;64447;52.140;5.602;2023-06-22T11:19:04;26.30;86.50
35593;DHT22;64447;52.140;5.602;2023-06-22T11:21:30;26.20;87.20
35593;DHT22;64447;52.140;5.602;2023-06-22T11:23:56;26.30;87.90
35593;DHT22;64447;52.140;5.602;2023-06-22T11:26:22;26.20;87.90
35593;DHT22;64447;52.140;5.602;2023-06-22T11:28:47;26.10;88.00
35593;DHT22;64447;52.140;5.602;2023-06-22T11:31:13;26.20;88.30
35593;DHT22;64447;52.140;5.602;2023-06-22T11:33:39;26.20;87.90
35593;DHT22;64447;52.140;5.602;2023-06-22T11:36:04;26.00;88.60
35593;DHT22;64447;52.140;5.602;2023-06-22T11:38:30;25.90;89.50
35593;DHT22;64447;52.140;5.602;2023-06-22T11:40:57;25.90;89.10
35593;DHT22;64447;52.140;5.602;2023-06-22T11:43:32;25.80;90.00
35593;DHT22;64447;52.140;5.602;2023-06-22T11:45:57;25.70;90.20
35593;DHT22;64447;52.140;5.602;2023-06-22T11:48:26;25.50;90.40
35593;DHT22;64447;52.140;5.602;2023-06-22T11:50:51;25.50;89.60
35593;DHT22;64447;52.140;5.602;2023-06-22T11:53:17;25.70;88.80
35593;DHT22;64447;52.140;5.602;2023-06-22T11:55:43;25.70;89.40
35593;DHT22;64447;52.140;5.602;2023-06-22T11:58:08;25.70;90.20
35593;DHT22;64447;52.140;5.602;2023-06-22T12:00:34;25.80;90.50
35593;DHT22;64447;52.140;5.602;2023-06-22T12:06:03;25.90;92.20
35593;DHT22;64447;52.140;5.602;2023-06-22T12:08:28;25.80;91.80
35593;DHT22;64447;52.140;5.602;2023-06-22T12:10:54;25.80;91.20
35593;DHT22;64447;52.140;5.602;2023-06-22T12:13:19;25.50;91.10
35593;DHT22;64447;52.140;5.602;2023-06-22T12:15:45;25.20;91.90
35593;DHT22;64447;52.140;5.602;2023-06-22T12:21:13;25.00;92.90
35593;DHT22;64447;52.140;5.602;2023-06-22T12:23:39;24.90;93.90
35593;DHT22;64447;52.140;5.602;2023-06-22T12:26:04;25.20;94.40
35593;DHT22;64447;52.140;5.602;2023-06-22T12:28:30;25.30;95.20
35593;DHT22;64447;52.140;5.602;2023-06-22T12:30:55;25.30;93.90
35593;DHT22;64447;52.140;5.602;2023-06-22T12:33:21;25.40;94.50
35593;DHT22;64447;52.140;5.602;2023-06-22T12:35:46;25.50;93.90
35593;DHT22;64447;52.140;5.602;2023-06-22T12:38:14;25.40;96.10
35593;DHT22;64447;52.140;5.602;2023-06-22T12:40:39;25.00;96.70
35593;DHT22;64447;52.140;5.602;2023-06-22T12:43:05;24.90;98.60
35593;DHT22;64447;52.140;5.602;2023-06-22T12:45:31;24.80;97.30
35593;DHT22;64447;52.140;5.602;2023-06-22T12:51:01;25.00;99.20
35593;DHT22;64447;52.140;5.602;2023-06-22T12:53:27;25.30;98.30
35593;DHT22;64447;52.140;5.602;2023-06-22T12:55:52;25.40;97.30
35593;DHT22;64447;52.140;5.602;2023-06-22T12:58:18;25.30;96.20
35593;DHT22;64447;52.140;5.602;2023-06-22T13:00:43;24.90;96.00
35593;DHT22;64447;52.140;5.602;2023-06-22T13:06:12;24.80;97.10
35593;DHT22;64447;52.140;5.602;2023-06-22T13:08:37;24.90;95.80
35593;DHT22;64447;52.140;5.602;2023-06-22T13:11:03;24.90;96.80
35593;DHT22;64447;52.140;5.602;2023-06-22T13:13:28;25.00;95.90
35593;DHT22;64447;52.140;5.602;2023-06-22T13:15:54;24.90;96.10
35593;DHT22;64447;52.140;5.602;2023-06-22T13:21:22;24.70;95.30
35593;DHT22;64447;52.140;5.602;2023-06-22T13:23:47;24.50;97.50
35593;DHT22;64447;52.140;5.602;2023-06-22T13:26:13;24.60;97.40
35593;DHT22;64447;52.140;5.602;2023-06-22T13:28:38;24.50;97.80
35593;DHT22;64447;52.140;5.602;2023-06-22T13:31:04;24.70;98.20
35593;DHT22;64447;52.140;5.602;2023-06-22T13:36:32;24.60;98.00
35593;DHT22;64447;52.140;5.602;2023-06-22T13:38:58;24.80;98.30
35593;DHT22;64447;52.140;5.602;2023-06-22T13:41:23;24.90;97.80
35593;DHT22;64447;52.140;5.602;2023-06-22T13:43:49;25.10;98.30
35593;DHT22;64447;52.140;5.602;2023-06-22T13:46:14;25.30;98.60
35593;DHT22;64447;52.140;5.602;2023-06-22T13:48:40;25.10;97.50
35593;DHT22;64447;52.140;5.602;2023-06-22T13:51:05;25.20;98.40
35593;DHT22;64447;52.140;5.602;2023-06-22T13:53:31;25.30;97.40
35593;DHT22;64447;52.140;5.602;2023-06-22T13:55:56;25.40;96.90
35593;DHT22;64447;52.140;5.602;2023-06-22T13:58:22;25.30;98.40
35593;DHT22;64447;52.140;5.602;2023-06-22T14:00:48;25.30;99.10
35593;DHT22;64447;52.140;5.602;2023-06-22T14:06:31;24.50;99.90
35593;DHT22;64447;52.140;5.602;2023-06-22T14:08:56;24.20;99.90
35593;DHT22;64447;52.140;5.602;2023-06-22T14:11:22;24.10;99.90
35593;DHT22;64447;52.140;5.602;2023-06-22T14:13:47;23.80;99.90
35593;DHT22;64447;52.140;5.602;2023-06-22T14:16:13;23.70;99.90
35593;DHT22;64447;52.140;5.602;2023-06-22T14:21:41;23.50;99.90
35593;DHT22;64447;52.140;5.602;2023-06-22T14:24:07;23.30;99.90
35593;DHT22;64447;52.140;5.602;2023-06-22T14:26:32;22.90;99.90
35593;DHT22;64447;52.140;5.602;2023-06-22T14:28:58;23.00;99.90
35593;DHT22;64447;52.140;5.602;2023-06-22T14:31:23;22.70;99.90
35593;DHT22;64447;52.140;5.602;2023-06-22T14:36:52;22.80;99.90
35593;DHT22;64447;52.140;5.602;2023-06-22T14:39:17;22.90;99.90
35593;DHT22;64447;52.140;5.602;2023-06-22T14:41:43;22.90;99.90
35593;DHT22;64447;52.140;5.602;2023-06-22T14:44:08;23.20;99.90
35593;DHT22;64447;52.140;5.602;2023-06-22T14:46:34;23.30;99.90
35593;DHT22;64447;52.140;5.602;2023-06-22T14:48:59;23.60;99.90
35593;DHT22;64447;52.140;5.602;2023-06-22T14:51:24;23.90;99.90
35593;DHT22;64447;52.140;5.602;2023-06-22T14:53:50;24.00;99.90
35593;DHT22;64447;52.140;5.602;2023-06-22T14:56:15;24.20;99.90
35593;DHT22;64447;52.140;5.602;2023-06-22T14:58:41;24.40;99.90
35593;DHT22;64447;52.140;5.602;2023-06-22T15:01:10;24.30;99.90
35593;DHT22;64447;52.140;5.602;2023-06-22T15:06:53;23.60;99.90
35593;DHT22;64447;52.140;5.602;2023-06-22T15:09:19;23.50;99.90
35593;DHT22;64447;52.140;5.602;2023-06-22T15:11:44;23.30;99.90
35593;DHT22;64447;52.140;5.602;2023-06-22T15:14:10;23.40;99.90
35593;DHT22;64447;52.140;5.602;2023-06-22T15:16:35;23.50;99.90
35593;DHT22;64447;52.140;5.602;2023-06-22T15:22:04;23.40;99.90
35593;DHT22;64447;52.140;5.602;2023-06-22T15:24:30;23.40;99.90
35593;DHT22;64447;52.140;5.602;2023-06-22T15:26:56;23.50;99.90
35593;DHT22;64447;52.140;5.602;2023-06-22T15:29:21;23.50;99.90
35593;DHT22;64447;52.140;5.602;2023-06-22T15:31:47;23.30;99.90
35593;DHT22;64447;52.140;5.602;2023-06-22T15:34:15;23.10;99.90
35593;DHT22;64447;52.140;5.602;2023-06-22T15:36:41;23.00;99.90
35593;DHT22;64447;52.140;5.602;2023-06-22T15:39:06;22.90;99.90
35593;DHT22;64447;52.140;5.602;2023-06-22T15:41:31;22.70;99.90
35593;DHT22;64447;52.140;5.602;2023-06-22T15:43:58;22.60;99.90
35593;DHT22;64447;52.140;5.602;2023-06-22T15:46:23;22.70;99.90
35593;DHT22;64447;52.140;5.602;2023-06-22T15:51:52;23.00;99.90
35593;DHT22;64447;52.140;5.602;2023-06-22T15:54:17;23.10;99.90
35593;DHT22;64447;52.140;5.602;2023-06-22T15:56:43;22.80;99.90
35593;DHT22;64447;52.140;5.602;2023-06-22T15:59:08;22.90;99.90
35593;DHT22;64447;52.140;5.602;2023-06-22T16:01:33;22.80;99.90
35593;DHT22;64447;52.140;5.602;2023-06-22T16:07:02;22.90;99.90
35593;DHT22;64447;52.140;5.602;2023-06-22T16:09:28;22.80;99.90
35593;DHT22;64447;52.140;5.602;2023-06-22T16:11:55;22.80;99.90
35593;DHT22;64447;52.140;5.602;2023-06-22T16:24:24;22.20;99.90
35593;DHT22;64447;52.140;5.602;2023-06-22T16:26:49;22.10;99.90
35593;DHT22;64447;52.140;5.602;2023-06-22T16:29:15;21.90;99.90
35593;DHT22;64447;52.140;5.602;2023-06-22T16:31:41;21.70;99.90
35593;DHT22;64447;52.140;5.602;2023-06-22T16:37:09;21.90;99.90
35593;DHT22;64447;52.140;5.602;2023-06-22T16:39:34;21.80;99.90
35593;DHT22;64447;52.140;5.602;2023-06-22T16:42:00;21.60;99.90
35593;DHT22;64447;52.140;5.602;2023-06-22T16:44:26;21.50;99.90
35593;DHT22;64447;52.140;5.602;2023-06-22T16:46:52;21.40;99.90
35593;DHT22;64447;52.140;5.602;2023-06-22T16:52:21;20.80;99.90
35593;DHT22;64447;52.140;5.602;2023-06-22T16:54:46;20.70;99.90